sensor_id;sensor_type;location;lat;lon;timestamp;temperature;humidity
1702;DHT22;848;48.354;10.064;2022-11-20T00:01:29;6.50;99.90
1702;DHT22;848;48.354;10.064;2022-11-20T00:03:57;6.50;99.90
1702;DHT22;848;48.354;10.064;2022-11-20T00:06:26;6.50;99.90
1702;DHT22;848;48.354;10.064;2022-11-20T00:08:54;6.50;99.90
1702;DHT22;848;48.354;10.064;2022-11-20T00:11:23;6.40;99.90
1702;DHT22;848;48.354;10.064;2022-11-20T00:13:53;6.40;99.90
1702;DHT22;848;48.354;10.064;2022-11-20T00:16:22;6.50;99.90
1702;DHT22;848;48.354;10.064;2022-11-20T00:18:51;6.50;99.90
1702;DHT22;848;48.354;10.064;2022-11-20T00:21:20;6.40;99.90
1702;DHT22;848;48.354;10.064;2022-11-20T00:23:47;6.40;99.90
1702;DHT22;848;48.354;10.064;2022-11-20T00:26:17;6.30;99.90
1702;DHT22;848;48.354;10.064;2022-11-20T00:28:48;6.20;99.90
1702;DHT22;848;48.354;10.064;2022-11-20T00:31:16;6.20;99.90
1702;DHT22;848;48.354;10.064;2022-11-20T00:33:44;6.20;99.90
1702;DHT22;848;48.354;10.064;2022-11-20T00:36:18;6.30;99.90
1702;DHT22;848;48.354;10.064;2022-11-20T00:38:45;6.30;99.90
1702;DHT22;848;48.354;10.064;2022-11-20T00:41:13;6.30;99.90
1702;DHT22;848;48.354;10.064;2022-11-20T00:43:41;6.50;99.90
1702;DHT22;848;48.354;10.064;2022-11-20T00:46:12;6.50;99.90
1702;DHT22;848;48.354;10.064;2022-11-20T00:48:39;6.50;99.90
1702;DHT22;848;48.354;10.064;2022-11-20T00:51:06;6.50;99.90
1702;DHT22;848;48.354;10.064;2022-11-20T00:53:35;6.50;99.90
1702;DHT22;848;48.354;10.064;2022-11-20T00:56:03;6.50;99.90
1702;DHT22;848;48.354;10.064;2022-11-20T00:58:33;6.50;99.90
1702;DHT22;848;48.354;10.064;2022-11-20T01:01:00;6.60;99.90
1702;DHT22;848;48.354;10.064;2022-11-20T01:03:30;6.60;99.90
1702;DHT22;848;48.354;10.064;2022-11-20T01:06:00;6.70;99.90
1702;DHT22;848;48.354;10.064;2022-11-20T01:08:29;6.50;99.90
1702;DHT22;848;48.354;10.064;2022-11-20T01:11:00;6.50;99.90
1702;DHT22;848;48.354;10.064;2022-11-20T01:13:28;6.50;99.90
1702;DHT22;848;48.354;10.064;2022-11-20T01:16:05;6.50;99.90
1702;DHT22;848;48.354;10.064;2022-11-20T01:18:33;6.40;99.90
1702;DHT22;848;48.354;10.064;2022-11-20T01:21:01;6.30;99.90
1702;DHT22;848;48.354;10.064;2022-11-20T01:23:31;6.30;99.90
1702;DHT22;848;48.354;10.064;2022-11-20T01:26:03;6.30;99.90
1702;DHT22;848;48.354;10.064;2022-11-20T01:28:31;6.20;99.90
1702;DHT22;848;48.354;10.064;2022-11-20T01:30:58;6.20;99.90
1702;DHT22;848;48.354;10.064;2022-11-20T01:33:25;6.40;99.90
1702;DHT22;848;48.354;10.064;2022-11-20T01:35:52;6.20;99.90
1702;DHT22;848;48.354;10.064;2022-11-20T01:38:19;6.10;99.90
1702;DHT22;848;48.354;10.064;2022-11-20T01:40:55;6.10;99.90
1702;DHT22;848;48.354;10.064;2022-11-20T01:43:25;6.10;99.90
1702;DHT22;848;48.354;10.064;2022-11-20T01:46:03;6.10;99.90
1702;DHT22;848;48.354;10.064;2022-11-20T01:48:34;6.00;99.90
1702;DHT22;848;48.354;10.064;2022-11-20T01:51:04;6.00;99.90
1702;DHT22;848;48.354;10.064;2022-11-20T01:53:34;6.00;99.90
1702;DHT22;848;48.354;10.064;2022-11-20T01:56:06;6.00;99.90
1702;DHT22;848;48.354;10.064;2022-11-20T01:58:40;6.10;99.90
1702;DHT22;848;48.354;10.064;2022-11-20T02:01:08;5.90;99.90
1702;DHT22;848;48.354;10.064;2022-11-20T02:03:36;5.90;99.90
1702;DHT22;848;48.354;10.064;2022-11-20T02:06:07;5.90;99.90
1702;DHT22;848;48.354;10.064;2022-11-20T02:08:37;5.80;99.90
1702;DHT22;848;48.354;10.064;2022-11-20T02:11:05;5.80;99.90
1702;DHT22;848;48.354;10.064;2022-11-20T02:13:32;5.90;99.90
1702;DHT22;848;48.354;10.064;2022-11-20T02:16:15;6.00;99.90
1702;DHT22;848;48.354;10.064;2022-11-20T02:18:43;5.80;99.90
1702;DHT22;848;48.354;10.064;2022-11-20T02:21:18;5.80;99.90
1702;DHT22;848;48.354;10.064;2022-11-20T02:24:00;5.80;99.90
1702;DHT22;848;48.354;10.064;2022-11-20T02:26:28;5.80;99.90
1702;DHT22;848;48.354;10.064;2022-11-20T02:28:56;5.80;99.90
1702;DHT22;848;48.354;10.064;2022-11-20T02:31:27;5.80;99.90
1702;DHT22;848;48.354;10.064;2022-11-20T02:33:55;5.70;99.90
1702;DHT22;848;48.354;10.064;2022-11-20T02:36:24;5.70;99.90
1702;DHT22;848;48.354;10.064;2022-11-20T02:38:53;5.80;99.90
1702;DHT22;848;48.354;10.064;2022-11-20T02:41:21;5.70;99.90
1702;DHT22;848;48.354;10.064;2022-11-20T02:43:48;5.70;99.90
1702;DHT22;848;48.354;10.064;2022-11-20T02:46:15;5.60;99.90
1702;DHT22;848;48.354;10.064;2022-11-20T02:48:42;5.60;99.90
1702;DHT22;848;48.354;10.064;2022-11-20T02:51:09;5.70;99.90
1702;DHT22;848;48.354;10.064;2022-11-20T02:53:36;5.70;99.90
1702;DHT22;848;48.354;10.064;2022-11-20T02:56:03;5.70;99.90
1702;DHT22;848;48.354;10.064;2022-11-20T02:58:31;5.60;99.90
1702;DHT22;848;48.354;10.064;2022-11-20T03:00:58;5.60;99.90
1702;DHT22;848;48.354;10.064;2022-11-20T03:03:25;5.60;99.90
1702;DHT22;848;48.354;10.064;2022-11-20T03:05:52;5.60;99.90
1702;DHT22;848;48.354;10.064;2022-11-20T03:08:19;5.60;99.90
1702;DHT22;848;48.354;10.064;2022-11-20T03:10:46;5.50;99.90
1702;DHT22;848;48.354;10.064;2022-11-20T03:13:13;5.50;99.90
1702;DHT22;848;48.354;10.064;2022-11-20T03:15:41;5.60;99.90
1702;DHT22;848;48.354;10.064;2022-11-20T03:18:08;5.50;99.90
1702;DHT22;848;48.354;10.064;2022-11-20T03:20:35;5.60;99.90
1702;DHT22;848;48.354;10.064;2022-11-20T03:23:02;5.60;99.90
1702;DHT22;848;48.354;10.064;2022-11-20T03:25:29;5.60;99.90
1702;DHT22;848;48.354;10.064;2022-11-20T03:27:57;5.50;99.90
1702;DHT22;848;48.354;10.064;2022-11-20T03:30:24;5.50;99.90
1702;DHT22;848;48.354;10.064;2022-11-20T03:32:54;5.50;99.90
1702;DHT22;848;48.354;10.064;2022-11-20T03:35:21;5.50;99.90
1702;DHT22;848;48.354;10.064;2022-11-20T03:37:48;5.50;99.90
1702;DHT22;848;48.354;10.064;2022-11-20T03:40:15;5.40;99.90
1702;DHT22;848;48.354;10.064;2022-11-20T03:42:45;5.30;99.90
1702;DHT22;848;48.354;10.064;2022-11-20T03:45:13;5.30;99.90
1702;DHT22;848;48.354;10.064;2022-11-20T03:47:40;5.30;99.90
1702;DHT22;848;48.354;10.064;2022-11-20T03:50:10;5.30;99.90
1702;DHT22;848;48.354;10.064;2022-11-20T03:52:38;5.40;99.90
1702;DHT22;848;48.354;10.064;2022-11-20T03:55:06;5.40;99.90
1702;DHT22;848;48.354;10.064;2022-11-20T03:57:33;5.40;99.90
1702;DHT22;848;48.354;10.064;2022-11-20T04:00:00;5.40;99.90
1702;DHT22;848;48.354;10.064;2022-11-20T04:02:27;5.40;99.90
1702;DHT22;848;48.354;10.064;2022-11-20T04:04:54;5.50;99.90
1702;DHT22;848;48.354;10.064;2022-11-20T04:07:22;5.50;99.90
1702;DHT22;848;48.354;10.064;2022-11-20T04:09:49;5.50;99.90
1702;DHT22;848;48.354;10.064;2022-11-20T04:12:16;5.50;99.90
1702;DHT22;848;48.354;10.064;2022-11-20T04:14:42;5.50;99.90
1702;DHT22;848;48.354;10.064;2022-11-20T04:17:09;5.50;99.90
1702;DHT22;848;48.354;10.064;2022-11-20T04:19:36;5.50;99.90
1702;DHT22;848;48.354;10.064;2022-11-20T04:22:03;5.40;99.90
1702;DHT22;848;48.354;10.064;2022-11-20T04:24:31;5.50;99.90
1702;DHT22;848;48.354;10.064;2022-11-20T04:26:58;5.50;99.90
1702;DHT22;848;48.354;10.064;2022-11-20T04:29:25;5.50;99.90
1702;DHT22;848;48.354;10.064;2022-11-20T04:31:52;5.50;99.90
1702;DHT22;848;48.354;10.064;2022-11-20T04:34:19;5.50;99.90
1702;DHT22;848;48.354;10.064;2022-11-20T04:36:46;5.50;99.90
1702;DHT22;848;48.354;10.064;2022-11-20T04:39:14;5.40;99.90
1702;DHT22;848;48.354;10.064;2022-11-20T04:41:43;5.40;99.90
1702;DHT22;848;48.354;10.064;2022-11-20T04:44:10;5.40;99.90
1702;DHT22;848;48.354;10.064;2022-11-20T04:46:38;5.40;99.90
1702;DHT22;848;48.354;10.064;2022-11-20T04:49:06;5.30;99.90
1702;DHT22;848;48.354;10.064;2022-11-20T04:51:34;5.20;99.90
1702;DHT22;848;48.354;10.064;2022-11-20T04:54:01;5.30;99.90
1702;DHT22;848;48.354;10.064;2022-11-20T04:56:28;5.30;99.90
1702;DHT22;848;48.354;10.064;2022-11-20T04:59:00;5.50;99.90
1702;DHT22;848;48.354;10.064;2022-11-20T05:01:27;5.30;99.90
1702;DHT22;848;48.354;10.064;2022-11-20T05:03:54;5.30;99.90
1702;DHT22;848;48.354;10.064;2022-11-20T05:06:22;5.40;99.90
1702;DHT22;848;48.354;10.064;2022-11-20T05:08:49;5.40;99.90
1702;DHT22;848;48.354;10.064;2022-11-20T05:11:18;5.30;99.90
1702;DHT22;848;48.354;10.064;2022-11-20T05:13:45;5.20;99.90
1702;DHT22;848;48.354;10.064;2022-11-20T05:16:15;5.20;99.90
1702;DHT22;848;48.354;10.064;2022-11-20T05:18:42;5.20;99.90
1702;DHT22;848;48.354;10.064;2022-11-20T05:21:10;5.30;99.90
1702;DHT22;848;48.354;10.064;2022-11-20T05:23:38;5.20;99.90
1702;DHT22;848;48.354;10.064;2022-11-20T05:26:06;5.20;99.90
1702;DHT22;848;48.354;10.064;2022-11-20T05:28:34;5.30;99.90
1702;DHT22;848;48.354;10.064;2022-11-20T05:31:05;5.20;99.90
1702;DHT22;848;48.354;10.064;2022-11-20T05:33:39;5.30;99.90
1702;DHT22;848;48.354;10.064;2022-11-20T05:36:07;5.40;99.90
1702;DHT22;848;48.354;10.064;2022-11-20T05:38:35;5.30;99.90
1702;DHT22;848;48.354;10.064;2022-11-20T05:41:05;5.30;99.90
1702;DHT22;848;48.354;10.064;2022-11-20T05:43:35;5.20;99.90
1702;DHT22;848;48.354;10.064;2022-11-20T05:46:04;5.30;99.90
1702;DHT22;848;48.354;10.064;2022-11-20T05:48:32;5.30;99.90
1702;DHT22;848;48.354;10.064;2022-11-20T05:51:02;5.30;99.90
1702;DHT22;848;48.354;10.064;2022-11-20T05:53:29;5.30;99.90
1702;DHT22;848;48.354;10.064;2022-11-20T05:55:57;5.40;99.90
1702;DHT22;848;48.354;10.064;2022-11-20T05:58:24;5.50;99.90
1702;DHT22;848;48.354;10.064;2022-11-20T06:00:51;5.50;99.90
1702;DHT22;848;48.354;10.064;2022-11-20T06:03:18;5.50;99.90
1702;DHT22;848;48.354;10.064;2022-11-20T06:05:45;5.50;99.90
1702;DHT22;848;48.354;10.064;2022-11-20T06:08:14;5.50;99.90
1702;DHT22;848;48.354;10.064;2022-11-20T06:10:41;5.50;99.90
1702;DHT22;848;48.354;10.064;2022-11-20T06:13:07;5.40;99.90
1702;DHT22;848;48.354;10.064;2022-11-20T06:15:34;5.50;99.90
1702;DHT22;848;48.354;10.064;2022-11-20T06:18:01;5.50;99.90
1702;DHT22;848;48.354;10.064;2022-11-20T06:20:28;5.40;99.90
1702;DHT22;848;48.354;10.064;2022-11-20T06:22:55;5.40;99.90
1702;DHT22;848;48.354;10.064;2022-11-20T06:25:23;5.50;99.90
1702;DHT22;848;48.354;10.064;2022-11-20T06:27:50;5.40;99.90
1702;DHT22;848;48.354;10.064;2022-11-20T06:30:17;5.60;99.90
1702;DHT22;848;48.354;10.064;2022-11-20T06:32:44;5.40;99.90
1702;DHT22;848;48.354;10.064;2022-11-20T06:35:11;5.40;99.90
1702;DHT22;848;48.354;10.064;2022-11-20T06:37:38;5.40;99.90
1702;DHT22;848;48.354;10.064;2022-11-20T06:40:06;5.50;99.90
1702;DHT22;848;48.354;10.064;2022-11-20T06:42:34;5.50;99.90
1702;DHT22;848;48.354;10.064;2022-11-20T06:45:01;5.50;99.90
1702;DHT22;848;48.354;10.064;2022-11-20T06:47:28;5.50;99.90
1702;DHT22;848;48.354;10.064;2022-11-20T06:49:55;5.50;99.90
1702;DHT22;848;48.354;10.064;2022-11-20T06:52:22;5.60;99.90
1702;DHT22;848;48.354;10.064;2022-11-20T06:54:49;5.60;99.90
1702;DHT22;848;48.354;10.064;2022-11-20T06:57:18;5.60;99.90
1702;DHT22;848;48.354;10.064;2022-11-20T06:59:47;5.60;99.90
1702;DHT22;848;48.354;10.064;2022-11-20T07:02:13;5.50;99.90
1702;DHT22;848;48.354;10.064;2022-11-20T07:04:40;5.50;99.90
1702;DHT22;848;48.354;10.064;2022-11-20T07:07:08;5.60;99.90
1702;DHT22;848;48.354;10.064;2022-11-20T07:09:35;5.50;99.90
1702;DHT22;848;48.354;10.064;2022-11-20T07:12:05;5.50;99.90
1702;DHT22;848;48.354;10.064;2022-11-20T07:14:32;5.60;99.90
1702;DHT22;848;48.354;10.064;2022-11-20T07:17:00;5.50;99.90
1702;DHT22;848;48.354;10.064;2022-11-20T07:19:27;5.60;99.90
1702;DHT22;848;48.354;10.064;2022-11-20T07:21:54;5.70;99.90
1702;DHT22;848;48.354;10.064;2022-11-20T07:24:21;5.70;99.90
1702;DHT22;848;48.354;10.064;2022-11-20T07:26:48;5.70;99.90
1702;DHT22;848;48.354;10.064;2022-11-20T07:29:17;5.90;99.90
1702;DHT22;848;48.354;10.064;2022-11-20T07:31:44;5.80;99.90
1702;DHT22;848;48.354;10.064;2022-11-20T07:34:13;5.90;99.90
1702;DHT22;848;48.354;10.064;2022-11-20T07:36:39;5.80;99.90
1702;DHT22;848;48.354;10.064;2022-11-20T07:39:06;5.80;99.90
1702;DHT22;848;48.354;10.064;2022-11-20T07:41:33;5.90;99.90
1702;DHT22;848;48.354;10.064;2022-11-20T07:44:00;5.90;99.90
1702;DHT22;848;48.354;10.064;2022-11-20T07:46:29;6.00;99.90
1702;DHT22;848;48.354;10.064;2022-11-20T07:48:56;6.00;99.90
1702;DHT22;848;48.354;10.064;2022-11-20T07:51:24;6.00;99.90
1702;DHT22;848;48.354;10.064;2022-11-20T07:53:52;6.10;99.90
1702;DHT22;848;48.354;10.064;2022-11-20T07:56:19;6.20;99.90
1702;DHT22;848;48.354;10.064;2022-11-20T07:58:46;6.50;99.90
1702;DHT22;848;48.354;10.064;2022-11-20T08:01:13;6.30;99.90
1702;DHT22;848;48.354;10.064;2022-11-20T08:03:42;6.20;99.90
1702;DHT22;848;48.354;10.064;2022-11-20T08:06:09;6.30;99.90
1702;DHT22;848;48.354;10.064;2022-11-20T08:08:57;6.20;99.90
1702;DHT22;848;48.354;10.064;2022-11-20T08:11:24;6.20;99.90
1702;DHT22;848;48.354;10.064;2022-11-20T08:14:09;6.10;99.90
1702;DHT22;848;48.354;10.064;2022-11-20T08:16:38;6.00;99.90
1702;DHT22;848;48.354;10.064;2022-11-20T08:19:06;6.00;99.90
1702;DHT22;848;48.354;10.064;2022-11-20T08:21:33;6.00;99.90
1702;DHT22;848;48.354;10.064;2022-11-20T08:24:01;6.00;99.90
1702;DHT22;848;48.354;10.064;2022-11-20T08:26:28;5.90;99.90
1702;DHT22;848;48.354;10.064;2022-11-20T08:28:56;5.90;99.90
1702;DHT22;848;48.354;10.064;2022-11-20T08:31:25;6.00;99.90
1702;DHT22;848;48.354;10.064;2022-11-20T08:33:52;6.10;99.90
1702;DHT22;848;48.354;10.064;2022-11-20T08:36:20;6.10;99.90
1702;DHT22;848;48.354;10.064;2022-11-20T08:38:48;6.10;99.90
1702;DHT22;848;48.354;10.064;2022-11-20T08:41:16;6.10;99.90
1702;DHT22;848;48.354;10.064;2022-11-20T08:43:55;6.00;99.90
1702;DHT22;848;48.354;10.064;2022-11-20T08:46:23;6.00;99.90
1702;DHT22;848;48.354;10.064;2022-11-20T08:48:50;6.00;99.90
1702;DHT22;848;48.354;10.064;2022-11-20T08:51:18;6.00;99.90
1702;DHT22;848;48.354;10.064;2022-11-20T08:53:45;6.10;99.90
1702;DHT22;848;48.354;10.064;2022-11-20T08:56:13;6.00;99.90
1702;DHT22;848;48.354;10.064;2022-11-20T08:58:44;6.10;99.90
1702;DHT22;848;48.354;10.064;2022-11-20T09:01:16;6.00;99.90
1702;DHT22;848;48.354;10.064;2022-11-20T09:03:45;6.10;99.90
1702;DHT22;848;48.354;10.064;2022-11-20T09:06:12;6.20;99.90
1702;DHT22;848;48.354;10.064;2022-11-20T09:08:39;6.30;99.90
1702;DHT22;848;48.354;10.064;2022-11-20T09:11:06;6.20;99.90
1702;DHT22;848;48.354;10.064;2022-11-20T09:13:34;6.30;99.90
1702;DHT22;848;48.354;10.064;2022-11-20T09:16:04;6.30;99.90
1702;DHT22;848;48.354;10.064;2022-11-20T09:18:34;6.40;99.90
1702;DHT22;848;48.354;10.064;2022-11-20T09:21:05;6.50;99.90
1702;DHT22;848;48.354;10.064;2022-11-20T09:23:33;6.50;99.90
1702;DHT22;848;48.354;10.064;2022-11-20T09:26:02;6.50;99.90
1702;DHT22;848;48.354;10.064;2022-11-20T09:28:29;6.50;99.90
1702;DHT22;848;48.354;10.064;2022-11-20T09:30:56;6.50;99.90
1702;DHT22;848;48.354;10.064;2022-11-20T09:33:25;6.40;99.90
1702;DHT22;848;48.354;10.064;2022-11-20T09:35:52;6.40;99.90
1702;DHT22;848;48.354;10.064;2022-11-20T09:38:19;6.50;99.90
1702;DHT22;848;48.354;10.064;2022-11-20T09:40:51;6.50;99.90
1702;DHT22;848;48.354;10.064;2022-11-20T09:43:26;6.50;99.90
1702;DHT22;848;48.354;10.064;2022-11-20T09:46:03;6.50;99.90
1702;DHT22;848;48.354;10.064;2022-11-20T09:48:45;6.50;99.90
1702;DHT22;848;48.354;10.064;2022-11-20T09:51:25;6.60;99.90
1702;DHT22;848;48.354;10.064;2022-11-20T09:54:04;6.60;99.90
1702;DHT22;848;48.354;10.064;2022-11-20T09:56:34;6.70;99.90
1702;DHT22;848;48.354;10.064;2022-11-20T09:59:06;6.60;99.90
1702;DHT22;848;48.354;10.064;2022-11-20T10:01:38;6.70;99.90
1702;DHT22;848;48.354;10.064;2022-11-20T10:04:12;6.70;99.90
1702;DHT22;848;48.354;10.064;2022-11-20T10:06:47;6.70;99.90
1702;DHT22;848;48.354;10.064;2022-11-20T10:09:21;6.80;99.90
1702;DHT22;848;48.354;10.064;2022-11-20T10:11:59;6.80;99.90
1702;DHT22;848;48.354;10.064;2022-11-20T10:14:37;6.80;99.90
1702;DHT22;848;48.354;10.064;2022-11-20T10:17:13;6.90;99.90
1702;DHT22;848;48.354;10.064;2022-11-20T10:19:58;7.00;99.90
1702;DHT22;848;48.354;10.064;2022-11-20T10:22:38;7.00;99.90
1702;DHT22;848;48.354;10.064;2022-11-20T10:25:14;7.00;99.90
1702;DHT22;848;48.354;10.064;2022-11-20T10:28:00;7.10;99.90
1702;DHT22;848;48.354;10.064;2022-11-20T10:30:36;7.20;99.90
1702;DHT22;848;48.354;10.064;2022-11-20T10:33:10;7.20;99.90
1702;DHT22;848;48.354;10.064;2022-11-20T10:35:44;7.30;99.90
1702;DHT22;848;48.354;10.064;2022-11-20T10:38:16;7.30;99.90
1702;DHT22;848;48.354;10.064;2022-11-20T10:40:47;7.30;99.90
1702;DHT22;848;48.354;10.064;2022-11-20T10:43:18;7.30;99.90
1702;DHT22;848;48.354;10.064;2022-11-20T10:45:52;7.40;99.90
1702;DHT22;848;48.354;10.064;2022-11-20T10:48:22;7.50;99.90
1702;DHT22;848;48.354;10.064;2022-11-20T10:51:12;7.50;99.90
1702;DHT22;848;48.354;10.064;2022-11-20T10:53:56;7.40;99.90
1702;DHT22;848;48.354;10.064;2022-11-20T10:56:30;7.40;99.90
1702;DHT22;848;48.354;10.064;2022-11-20T10:59:11;7.40;99.90
1702;DHT22;848;48.354;10.064;2022-11-20T11:01:45;7.50;99.90
1702;DHT22;848;48.354;10.064;2022-11-20T11:04:23;7.90;99.90
1702;DHT22;848;48.354;10.064;2022-11-20T11:07:02;7.40;99.90
1702;DHT22;848;48.354;10.064;2022-11-20T11:09:36;7.30;99.90
1702;DHT22;848;48.354;10.064;2022-11-20T11:12:07;7.20;99.90
1702;DHT22;848;48.354;10.064;2022-11-20T11:14:42;7.20;99.90
1702;DHT22;848;48.354;10.064;2022-11-20T11:17:24;7.10;99.90
1702;DHT22;848;48.354;10.064;2022-11-20T11:20:16;7.20;99.90
1702;DHT22;848;48.354;10.064;2022-11-20T11:22:47;7.30;99.90
1702;DHT22;848;48.354;10.064;2022-11-20T11:25:23;7.30;99.90
1702;DHT22;848;48.354;10.064;2022-11-20T11:27:51;7.30;99.90
1702;DHT22;848;48.354;10.064;2022-11-20T11:30:19;7.30;99.90
1702;DHT22;848;48.354;10.064;2022-11-20T11:32:46;7.30;99.90
1702;DHT22;848;48.354;10.064;2022-11-20T11:35:22;7.30;99.90
1702;DHT22;848;48.354;10.064;2022-11-20T11:37:51;7.20;99.90
1702;DHT22;848;48.354;10.064;2022-11-20T11:40:21;7.20;99.90
1702;DHT22;848;48.354;10.064;2022-11-20T11:42:54;7.20;99.90
1702;DHT22;848;48.354;10.064;2022-11-20T11:45:23;7.30;99.90
1702;DHT22;848;48.354;10.064;2022-11-20T11:47:50;7.30;99.90
1702;DHT22;848;48.354;10.064;2022-11-20T11:50:20;7.30;99.90
1702;DHT22;848;48.354;10.064;2022-11-20T11:53:02;7.20;99.90
1702;DHT22;848;48.354;10.064;2022-11-20T11:55:35;7.20;99.90
1702;DHT22;848;48.354;10.064;2022-11-20T11:58:28;7.20;99.90
1702;DHT22;848;48.354;10.064;2022-11-20T12:01:02;7.20;99.90
1702;DHT22;848;48.354;10.064;2022-11-20T12:03:35;7.20;99.90
1702;DHT22;848;48.354;10.064;2022-11-20T12:06:06;7.20;99.90
1702;DHT22;848;48.354;10.064;2022-11-20T12:08:42;7.20;99.90
1702;DHT22;848;48.354;10.064;2022-11-20T12:11:13;7.20;99.90
1702;DHT22;848;48.354;10.064;2022-11-20T12:13:45;7.20;99.90
1702;DHT22;848;48.354;10.064;2022-11-20T12:16:15;7.30;99.90
1702;DHT22;848;48.354;10.064;2022-11-20T12:18:46;7.30;99.90
1702;DHT22;848;48.354;10.064;2022-11-20T12:21:27;7.40;99.90
1702;DHT22;848;48.354;10.064;2022-11-20T12:24:12;7.50;99.90
1702;DHT22;848;48.354;10.064;2022-11-20T12:26:54;7.50;99.90
1702;DHT22;848;48.354;10.064;2022-11-20T12:29:33;7.60;99.90
1702;DHT22;848;48.354;10.064;2022-11-20T12:32:24;7.60;99.90
1702;DHT22;848;48.354;10.064;2022-11-20T12:35:02;7.60;99.90
1702;DHT22;848;48.354;10.064;2022-11-20T12:37:38;7.70;99.90
1702;DHT22;848;48.354;10.064;2022-11-20T12:40:24;7.70;99.90
1702;DHT22;848;48.354;10.064;2022-11-20T12:43:04;7.60;99.90
1702;DHT22;848;48.354;10.064;2022-11-20T12:46:18;7.70;99.90
1702;DHT22;848;48.354;10.064;2022-11-20T12:49:05;7.70;99.90
1702;DHT22;848;48.354;10.064;2022-11-20T12:51:48;7.70;99.90
1702;DHT22;848;48.354;10.064;2022-11-20T12:54:44;7.70;99.90
1702;DHT22;848;48.354;10.064;2022-11-20T12:57:19;7.70;99.90
1702;DHT22;848;48.354;10.064;2022-11-20T13:00:07;7.80;99.90
1702;DHT22;848;48.354;10.064;2022-11-20T13:05:33;7.80;99.90
1702;DHT22;848;48.354;10.064;2022-11-20T13:08:02;7.70;99.90
1702;DHT22;848;48.354;10.064;2022-11-20T13:10:38;7.80;99.90
1702;DHT22;848;48.354;10.064;2022-11-20T13:13:14;7.80;99.90
1702;DHT22;848;48.354;10.064;2022-11-20T13:15:48;7.80;99.90
1702;DHT22;848;48.354;10.064;2022-11-20T13:18:17;7.90;99.90
1702;DHT22;848;48.354;10.064;2022-11-20T13:20:45;7.90;99.90
1702;DHT22;848;48.354;10.064;2022-11-20T13:23:25;8.10;99.90
1702;DHT22;848;48.354;10.064;2022-11-20T13:26:03;8.00;99.90
1702;DHT22;848;48.354;10.064;2022-11-20T13:28:33;8.10;99.90
1702;DHT22;848;48.354;10.064;2022-11-20T13:31:02;8.20;99.90
1702;DHT22;848;48.354;10.064;2022-11-20T13:33:31;8.20;99.90
1702;DHT22;848;48.354;10.064;2022-11-20T13:36:00;8.10;99.90
1702;DHT22;848;48.354;10.064;2022-11-20T13:38:39;8.10;99.90
1702;DHT22;848;48.354;10.064;2022-11-20T13:41:08;8.10;99.90
1702;DHT22;848;48.354;10.064;2022-11-20T13:43:52;8.00;99.90
1702;DHT22;848;48.354;10.064;2022-11-20T13:46:20;8.00;99.90
1702;DHT22;848;48.354;10.064;2022-11-20T13:48:51;8.00;99.90
1702;DHT22;848;48.354;10.064;2022-11-20T13:51:30;8.00;99.90
1702;DHT22;848;48.354;10.064;2022-11-20T13:57:16;8.00;99.90
1702;DHT22;848;48.354;10.064;2022-11-20T13:59:56;8.00;99.90
1702;DHT22;848;48.354;10.064;2022-11-20T14:02:26;8.00;99.90
1702;DHT22;848;48.354;10.064;2022-11-20T14:04:57;8.10;99.90
1702;DHT22;848;48.354;10.064;2022-11-20T14:07:31;8.00;99.90
1702;DHT22;848;48.354;10.064;2022-11-20T14:09:59;8.00;99.90
1702;DHT22;848;48.354;10.064;2022-11-20T14:12:28;8.00;99.90
1702;DHT22;848;48.354;10.064;2022-11-20T14:14:57;8.00;99.90
1702;DHT22;848;48.354;10.064;2022-11-20T14:17:32;8.00;99.90
1702;DHT22;848;48.354;10.064;2022-11-20T14:20:01;7.90;99.90
1702;DHT22;848;48.354;10.064;2022-11-20T14:22:30;8.00;99.90
1702;DHT22;848;48.354;10.064;2022-11-20T14:25:06;8.00;99.90
1702;DHT22;848;48.354;10.064;2022-11-20T14:27:34;8.00;99.90
1702;DHT22;848;48.354;10.064;2022-11-20T14:30:05;8.10;99.90
1702;DHT22;848;48.354;10.064;2022-11-20T14:32:35;8.10;99.90
1702;DHT22;848;48.354;10.064;2022-11-20T14:35:07;8.10;99.90
1702;DHT22;848;48.354;10.064;2022-11-20T14:37:38;8.10;99.90
1702;DHT22;848;48.354;10.064;2022-11-20T14:40:29;8.10;99.90
1702;DHT22;848;48.354;10.064;2022-11-20T14:43:22;8.10;99.90
1702;DHT22;848;48.354;10.064;2022-11-20T14:45:56;8.10;99.90
1702;DHT22;848;48.354;10.064;2022-11-20T14:48:29;8.10;99.90
1702;DHT22;848;48.354;10.064;2022-11-20T14:50:57;8.10;99.90
1702;DHT22;848;48.354;10.064;2022-11-20T14:53:24;8.30;99.90
1702;DHT22;848;48.354;10.064;2022-11-20T14:55:56;8.20;99.90
1702;DHT22;848;48.354;10.064;2022-11-20T14:58:25;8.20;99.90
1702;DHT22;848;48.354;10.064;2022-11-20T15:01:00;8.10;99.90
1702;DHT22;848;48.354;10.064;2022-11-20T15:03:34;8.10;99.90
1702;DHT22;848;48.354;10.064;2022-11-20T15:06:01;8.20;99.90
1702;DHT22;848;48.354;10.064;2022-11-20T15:08:28;8.20;99.90
1702;DHT22;848;48.354;10.064;2022-11-20T15:10:55;8.10;99.90
1702;DHT22;848;48.354;10.064;2022-11-20T15:13:26;8.10;99.90
1702;DHT22;848;48.354;10.064;2022-11-20T15:15:58;8.00;99.90
1702;DHT22;848;48.354;10.064;2022-11-20T15:18:28;8.00;99.90
1702;DHT22;848;48.354;10.064;2022-11-20T15:20:56;7.90;99.90
1702;DHT22;848;48.354;10.064;2022-11-20T15:23:26;7.80;99.90
1702;DHT22;848;48.354;10.064;2022-11-20T15:25:53;7.90;99.90
1702;DHT22;848;48.354;10.064;2022-11-20T15:28:22;7.90;99.90
1702;DHT22;848;48.354;10.064;2022-11-20T15:30:51;7.90;99.90
1702;DHT22;848;48.354;10.064;2022-11-20T15:33:19;7.80;99.90
1702;DHT22;848;48.354;10.064;2022-11-20T15:35:46;7.70;99.90
1702;DHT22;848;48.354;10.064;2022-11-20T15:38:13;7.60;99.90
1702;DHT22;848;48.354;10.064;2022-11-20T15:40:40;7.60;99.90
1702;DHT22;848;48.354;10.064;2022-11-20T15:43:07;7.60;99.90
1702;DHT22;848;48.354;10.064;2022-11-20T15:45:38;7.50;99.90
1702;DHT22;848;48.354;10.064;2022-11-20T15:48:09;7.50;99.90
1702;DHT22;848;48.354;10.064;2022-11-20T15:50:46;7.40;99.90
1702;DHT22;848;48.354;10.064;2022-11-20T15:53:16;7.30;99.90
1702;DHT22;848;48.354;10.064;2022-11-20T15:55:43;7.30;99.90
1702;DHT22;848;48.354;10.064;2022-11-20T15:58:10;7.20;99.90
1702;DHT22;848;48.354;10.064;2022-11-20T16:00:37;7.20;99.90
1702;DHT22;848;48.354;10.064;2022-11-20T16:03:03;7.20;99.90
1702;DHT22;848;48.354;10.064;2022-11-20T16:05:30;7.20;99.90
1702;DHT22;848;48.354;10.064;2022-11-20T16:07:59;7.20;99.90
1702;DHT22;848;48.354;10.064;2022-11-20T16:10:27;7.20;99.90
1702;DHT22;848;48.354;10.064;2022-11-20T16:12:54;7.20;99.90
1702;DHT22;848;48.354;10.064;2022-11-20T16:15:38;7.20;99.90
1702;DHT22;848;48.354;10.064;2022-11-20T16:18:13;7.10;99.90
1702;DHT22;848;48.354;10.064;2022-11-20T16:20:40;7.10;99.90
1702;DHT22;848;48.354;10.064;2022-11-20T16:23:08;7.10;99.90
1702;DHT22;848;48.354;10.064;2022-11-20T16:25:40;7.10;99.90
1702;DHT22;848;48.354;10.064;2022-11-20T16:28:07;7.20;99.90
1702;DHT22;848;48.354;10.064;2022-11-20T16:30:34;7.10;99.90
1702;DHT22;848;48.354;10.064;2022-11-20T16:33:02;7.10;99.90
1702;DHT22;848;48.354;10.064;2022-11-20T16:35:30;7.10;99.90
1702;DHT22;848;48.354;10.064;2022-11-20T16:37:58;7.10;99.90
1702;DHT22;848;48.354;10.064;2022-11-20T16:40:33;7.10;99.90
1702;DHT22;848;48.354;10.064;2022-11-20T16:43:07;7.10;99.90
1702;DHT22;848;48.354;10.064;2022-11-20T16:45:34;7.10;99.90